Castalia, North Carolina
Current Conditions -  °F | °C
As of 10:55 AM on Friday 19 Dec 2014 (Local Time) from KLHZ Reporting Station
Clear Clear  
Wind Chill: 38°   Ceiling: Unl
Heat Index: 41°   Visibility: 10mi
Dew Point: 28°   Wind: 5mph
Humidity: 61%   Direction: 10°N
Pressure: 30.18"   Gusts: NA
Location:  36.08°N, 78.06°W
Report Text: KLHZ 191555Z AUTO 01004KT 10SM CLR 05/M02 A3018 RMK AO2
Loading
Personal Weather Stations






























Interactive Weather Map New forecast layout! Learn more

10-Day Weather Forecast

Advertisements
Track Severe Weather on mobile